sensor_id;sensor_type;location;lat;lon;timestamp;P1;durP1;ratioP1;P2;durP2;ratioP2
63902;SDS011;50072;50.678;13.938;2022-12-16T00:02:19;106.20;;;33.97;;
63902;SDS011;50072;50.678;13.938;2022-12-16T00:04:45;110.85;;;36.08;;
63902;SDS011;50072;50.678;13.938;2022-12-16T00:07:10;120.28;;;36.92;;
63902;SDS011;50072;50.678;13.938;2022-12-16T00:09:36;111.78;;;36.33;;
63902;SDS011;50072;50.678;13.938;2022-12-16T00:12:02;116.28;;;37.10;;
63902;SDS011;50072;50.678;13.938;2022-12-16T00:14:28;107.72;;;33.75;;
63902;SDS011;50072;50.678;13.938;2022-12-16T00:16:54;120.10;;;35.08;;
63902;SDS011;50072;50.678;13.938;2022-12-16T00:19:20;123.95;;;38.85;;
63902;SDS011;50072;50.678;13.938;2022-12-16T00:21:45;115.13;;;38.15;;
63902;SDS011;50072;50.678;13.938;2022-12-16T00:24:11;130.57;;;38.58;;
63902;SDS011;50072;50.678;13.938;2022-12-16T00:26:37;112.90;;;37.75;;
63902;SDS011;50072;50.678;13.938;2022-12-16T00:29:03;231.00;;;62.33;;
63902;SDS011;50072;50.678;13.938;2022-12-16T00:31:30;194.05;;;53.95;;
63902;SDS011;50072;50.678;13.938;2022-12-16T00:33:56;143.07;;;45.45;;
63902;SDS011;50072;50.678;13.938;2022-12-16T00:36:22;137.30;;;43.85;;
63902;SDS011;50072;50.678;13.938;2022-12-16T00:38:50;131.23;;;41.65;;
63902;SDS011;50072;50.678;13.938;2022-12-16T00:41:16;148.93;;;46.40;;
63902;SDS011;50072;50.678;13.938;2022-12-16T00:43:42;149.50;;;46.53;;
63902;SDS011;50072;50.678;13.938;2022-12-16T00:46:08;132.18;;;40.70;;
63902;SDS011;50072;50.678;13.938;2022-12-16T00:48:34;130.85;;;42.53;;
63902;SDS011;50072;50.678;13.938;2022-12-16T00:50:59;135.32;;;42.90;;
63902;SDS011;50072;50.678;13.938;2022-12-16T00:53:25;135.07;;;40.20;;
63902;SDS011;50072;50.678;13.938;2022-12-16T00:55:51;161.07;;;49.50;;
63902;SDS011;50072;50.678;13.938;2022-12-16T00:58:25;117.13;;;38.63;;
63902;SDS011;50072;50.678;13.938;2022-12-16T01:00:51;117.45;;;39.60;;
63902;SDS011;50072;50.678;13.938;2022-12-16T01:03:17;119.05;;;37.08;;
63902;SDS011;50072;50.678;13.938;2022-12-16T01:05:43;121.53;;;37.60;;
63902;SDS011;50072;50.678;13.938;2022-12-16T01:08:08;117.25;;;39.33;;
63902;SDS011;50072;50.678;13.938;2022-12-16T01:10:34;114.70;;;38.42;;
63902;SDS011;50072;50.678;13.938;2022-12-16T01:13:00;119.63;;;38.40;;
63902;SDS011;50072;50.678;13.938;2022-12-16T01:15:26;113.97;;;38.47;;
63902;SDS011;50072;50.678;13.938;2022-12-16T01:17:51;135.00;;;41.65;;
63902;SDS011;50072;50.678;13.938;2022-12-16T01:20:17;123.55;;;38.33;;
63902;SDS011;50072;50.678;13.938;2022-12-16T01:22:43;118.32;;;36.90;;
63902;SDS011;50072;50.678;13.938;2022-12-16T01:25:10;114.55;;;39.65;;
63902;SDS011;50072;50.678;13.938;2022-12-16T01:27:37;105.13;;;36.83;;
63902;SDS011;50072;50.678;13.938;2022-12-16T01:30:04;105.47;;;35.45;;
63902;SDS011;50072;50.678;13.938;2022-12-16T01:32:30;114.93;;;38.78;;
63902;SDS011;50072;50.678;13.938;2022-12-16T01:34:56;117.15;;;38.70;;
63902;SDS011;50072;50.678;13.938;2022-12-16T01:37:22;113.80;;;40.67;;
63902;SDS011;50072;50.678;13.938;2022-12-16T01:39:48;113.38;;;35.95;;
63902;SDS011;50072;50.678;13.938;2022-12-16T01:42:15;117.38;;;38.10;;
63902;SDS011;50072;50.678;13.938;2022-12-16T01:44:44;110.35;;;34.78;;
63902;SDS011;50072;50.678;13.938;2022-12-16T01:47:17;111.38;;;37.72;;
63902;SDS011;50072;50.678;13.938;2022-12-16T01:50:01;111.07;;;37.45;;
63902;SDS011;50072;50.678;13.938;2022-12-16T01:52:39;104.88;;;36.10;;
63902;SDS011;50072;50.678;13.938;2022-12-16T01:55:17;109.85;;;36.08;;
63902;SDS011;50072;50.678;13.938;2022-12-16T01:57:53;107.25;;;36.67;;
63902;SDS011;50072;50.678;13.938;2022-12-16T02:00:23;112.93;;;37.28;;
63902;SDS011;50072;50.678;13.938;2022-12-16T02:02:49;120.53;;;38.85;;
63902;SDS011;50072;50.678;13.938;2022-12-16T02:05:16;106.85;;;36.60;;
63902;SDS011;50072;50.678;13.938;2022-12-16T02:10:26;114.03;;;38.10;;
63902;SDS011;50072;50.678;13.938;2022-12-16T02:13:00;133.27;;;39.25;;
63902;SDS011;50072;50.678;13.938;2022-12-16T02:26:14;112.75;;;38.13;;
63902;SDS011;50072;50.678;13.938;2022-12-16T02:31:41;116.22;;;36.65;;
63902;SDS011;50072;50.678;13.938;2022-12-16T02:37:16;116.88;;;40.92;;
63902;SDS011;50072;50.678;13.938;2022-12-16T02:39:58;105.15;;;35.78;;
63902;SDS011;50072;50.678;13.938;2022-12-16T02:45:10;114.82;;;38.95;;
63902;SDS011;50072;50.678;13.938;2022-12-16T02:47:39;117.07;;;40.30;;
63902;SDS011;50072;50.678;13.938;2022-12-16T02:50:05;118.88;;;38.08;;
63902;SDS011;50072;50.678;13.938;2022-12-16T02:52:42;119.32;;;37.63;;
63902;SDS011;50072;50.678;13.938;2022-12-16T02:55:08;120.85;;;39.75;;
63902;SDS011;50072;50.678;13.938;2022-12-16T02:57:39;126.80;;;39.65;;
63902;SDS011;50072;50.678;13.938;2022-12-16T03:00:13;124.40;;;38.10;;
63902;SDS011;50072;50.678;13.938;2022-12-16T03:05:34;115.88;;;37.15;;
63902;SDS011;50072;50.678;13.938;2022-12-16T03:08:06;106.72;;;36.67;;
63902;SDS011;50072;50.678;13.938;2022-12-16T03:10:40;159.70;;;45.38;;
63902;SDS011;50072;50.678;13.938;2022-12-16T03:13:09;184.07;;;51.08;;
63902;SDS011;50072;50.678;13.938;2022-12-16T03:15:37;129.02;;;39.28;;
63902;SDS011;50072;50.678;13.938;2022-12-16T03:18:06;113.25;;;36.38;;
63902;SDS011;50072;50.678;13.938;2022-12-16T03:20:52;128.63;;;40.60;;
63902;SDS011;50072;50.678;13.938;2022-12-16T03:23:28;110.10;;;35.05;;
63902;SDS011;50072;50.678;13.938;2022-12-16T03:26:02;128.10;;;39.70;;
63902;SDS011;50072;50.678;13.938;2022-12-16T03:28:53;109.03;;;36.33;;
63902;SDS011;50072;50.678;13.938;2022-12-16T03:31:30;116.15;;;34.55;;
63902;SDS011;50072;50.678;13.938;2022-12-16T03:34:30;127.43;;;39.58;;
63902;SDS011;50072;50.678;13.938;2022-12-16T03:37:04;106.97;;;35.22;;
63902;SDS011;50072;50.678;13.938;2022-12-16T03:39:32;103.10;;;33.67;;
63902;SDS011;50072;50.678;13.938;2022-12-16T03:42:02;104.63;;;33.92;;
63902;SDS011;50072;50.678;13.938;2022-12-16T03:44:28;102.22;;;34.58;;
63902;SDS011;50072;50.678;13.938;2022-12-16T03:46:54;115.80;;;38.85;;
63902;SDS011;50072;50.678;13.938;2022-12-16T03:49:21;104.03;;;35.60;;
63902;SDS011;50072;50.678;13.938;2022-12-16T03:51:48;97.47;;;33.40;;
63902;SDS011;50072;50.678;13.938;2022-12-16T03:54:13;110.30;;;36.47;;
63902;SDS011;50072;50.678;13.938;2022-12-16T03:56:39;98.18;;;34.85;;
63902;SDS011;50072;50.678;13.938;2022-12-16T03:59:05;87.80;;;31.13;;
63902;SDS011;50072;50.678;13.938;2022-12-16T04:01:32;102.13;;;33.78;;
63902;SDS011;50072;50.678;13.938;2022-12-16T04:03:57;86.18;;;31.80;;
63902;SDS011;50072;50.678;13.938;2022-12-16T04:06:23;96.10;;;32.50;;
63902;SDS011;50072;50.678;13.938;2022-12-16T04:08:49;98.20;;;34.00;;
63902;SDS011;50072;50.678;13.938;2022-12-16T04:11:15;94.28;;;33.30;;
63902;SDS011;50072;50.678;13.938;2022-12-16T04:13:59;103.63;;;34.60;;
63902;SDS011;50072;50.678;13.938;2022-12-16T04:16:44;91.75;;;31.52;;
63902;SDS011;50072;50.678;13.938;2022-12-16T04:19:29;99.55;;;32.20;;
63902;SDS011;50072;50.678;13.938;2022-12-16T04:22:27;98.40;;;33.78;;
63902;SDS011;50072;50.678;13.938;2022-12-16T04:25:15;93.18;;;30.90;;
63902;SDS011;50072;50.678;13.938;2022-12-16T04:27:46;95.70;;;33.05;;
63902;SDS011;50072;50.678;13.938;2022-12-16T04:30:15;102.18;;;33.05;;
63902;SDS011;50072;50.678;13.938;2022-12-16T04:36:02;83.85;;;30.23;;
63902;SDS011;50072;50.678;13.938;2022-12-16T04:38:47;77.80;;;28.13;;
63902;SDS011;50072;50.678;13.938;2022-12-16T04:41:31;95.05;;;32.53;;
63902;SDS011;50072;50.678;13.938;2022-12-16T04:44:16;86.15;;;30.73;;
63902;SDS011;50072;50.678;13.938;2022-12-16T04:47:00;86.38;;;28.85;;
63902;SDS011;50072;50.678;13.938;2022-12-16T04:49:45;77.80;;;27.73;;
63902;SDS011;50072;50.678;13.938;2022-12-16T04:52:29;85.35;;;28.23;;
63902;SDS011;50072;50.678;13.938;2022-12-16T04:55:14;77.40;;;27.77;;
63902;SDS011;50072;50.678;13.938;2022-12-16T04:57:59;82.50;;;28.13;;
63902;SDS011;50072;50.678;13.938;2022-12-16T05:00:46;85.40;;;29.30;;
63902;SDS011;50072;50.678;13.938;2022-12-16T05:03:31;91.97;;;31.08;;
63902;SDS011;50072;50.678;13.938;2022-12-16T05:06:16;104.07;;;33.83;;
63902;SDS011;50072;50.678;13.938;2022-12-16T05:09:01;108.50;;;36.17;;
63902;SDS011;50072;50.678;13.938;2022-12-16T05:11:46;104.38;;;33.88;;
63902;SDS011;50072;50.678;13.938;2022-12-16T05:14:31;101.43;;;33.75;;
63902;SDS011;50072;50.678;13.938;2022-12-16T05:17:29;90.47;;;31.48;;
63902;SDS011;50072;50.678;13.938;2022-12-16T05:20:14;103.75;;;34.58;;
63902;SDS011;50072;50.678;13.938;2022-12-16T05:22:58;90.60;;;31.88;;
63902;SDS011;50072;50.678;13.938;2022-12-16T05:25:42;92.35;;;32.38;;
63902;SDS011;50072;50.678;13.938;2022-12-16T05:28:27;103.07;;;36.20;;
63902;SDS011;50072;50.678;13.938;2022-12-16T05:31:12;106.72;;;35.33;;
63902;SDS011;50072;50.678;13.938;2022-12-16T05:33:56;120.65;;;37.40;;
63902;SDS011;50072;50.678;13.938;2022-12-16T05:36:41;109.63;;;37.35;;
63902;SDS011;50072;50.678;13.938;2022-12-16T05:39:25;103.70;;;36.45;;
63902;SDS011;50072;50.678;13.938;2022-12-16T05:42:09;98.93;;;33.30;;
63902;SDS011;50072;50.678;13.938;2022-12-16T05:44:54;99.50;;;32.05;;
63902;SDS011;50072;50.678;13.938;2022-12-16T05:47:38;90.03;;;29.67;;
63902;SDS011;50072;50.678;13.938;2022-12-16T05:50:23;99.63;;;31.63;;
63902;SDS011;50072;50.678;13.938;2022-12-16T05:53:07;84.53;;;29.42;;
63902;SDS011;50072;50.678;13.938;2022-12-16T05:55:52;97.80;;;32.75;;
63902;SDS011;50072;50.678;13.938;2022-12-16T05:58:36;82.07;;;27.35;;
63902;SDS011;50072;50.678;13.938;2022-12-16T06:01:21;91.30;;;30.33;;
63902;SDS011;50072;50.678;13.938;2022-12-16T06:04:05;66.47;;;24.40;;
63902;SDS011;50072;50.678;13.938;2022-12-16T06:06:50;74.82;;;24.42;;
63902;SDS011;50072;50.678;13.938;2022-12-16T06:09:34;61.90;;;21.88;;
63902;SDS011;50072;50.678;13.938;2022-12-16T06:12:19;73.25;;;24.45;;
63902;SDS011;50072;50.678;13.938;2022-12-16T06:15:04;60.75;;;22.85;;
63902;SDS011;50072;50.678;13.938;2022-12-16T06:17:49;65.22;;;21.85;;
63902;SDS011;50072;50.678;13.938;2022-12-16T06:20:35;61.78;;;21.08;;
63902;SDS011;50072;50.678;13.938;2022-12-16T06:23:20;60.72;;;20.35;;
63902;SDS011;50072;50.678;13.938;2022-12-16T06:26:04;56.78;;;19.45;;
63902;SDS011;50072;50.678;13.938;2022-12-16T06:28:49;56.70;;;20.17;;
63902;SDS011;50072;50.678;13.938;2022-12-16T06:31:34;53.58;;;21.50;;
63902;SDS011;50072;50.678;13.938;2022-12-16T06:34:18;60.90;;;22.65;;
63902;SDS011;50072;50.678;13.938;2022-12-16T06:37:03;59.03;;;22.30;;
63902;SDS011;50072;50.678;13.938;2022-12-16T06:39:47;64.60;;;22.50;;
63902;SDS011;50072;50.678;13.938;2022-12-16T06:42:32;50.25;;;19.90;;
63902;SDS011;50072;50.678;13.938;2022-12-16T06:45:16;50.65;;;19.15;;
63902;SDS011;50072;50.678;13.938;2022-12-16T06:48:00;60.20;;;20.95;;
63902;SDS011;50072;50.678;13.938;2022-12-16T06:50:45;59.33;;;20.58;;
63902;SDS011;50072;50.678;13.938;2022-12-16T06:53:29;55.83;;;19.92;;
63902;SDS011;50072;50.678;13.938;2022-12-16T06:56:14;54.10;;;18.98;;
63902;SDS011;50072;50.678;13.938;2022-12-16T06:58:58;56.17;;;20.75;;
63902;SDS011;50072;50.678;13.938;2022-12-16T07:01:42;64.65;;;22.75;;
63902;SDS011;50072;50.678;13.938;2022-12-16T07:04:27;73.57;;;28.30;;
63902;SDS011;50072;50.678;13.938;2022-12-16T07:07:12;86.45;;;36.88;;
63902;SDS011;50072;50.678;13.938;2022-12-16T07:09:57;54.30;;;22.42;;
63902;SDS011;50072;50.678;13.938;2022-12-16T07:12:42;50.13;;;21.23;;
63902;SDS011;50072;50.678;13.938;2022-12-16T07:15:26;62.60;;;23.60;;
63902;SDS011;50072;50.678;13.938;2022-12-16T07:18:11;83.75;;;25.52;;
63902;SDS011;50072;50.678;13.938;2022-12-16T07:20:56;82.68;;;25.70;;
63902;SDS011;50072;50.678;13.938;2022-12-16T07:23:41;62.55;;;21.27;;
63902;SDS011;50072;50.678;13.938;2022-12-16T07:26:25;107.20;;;32.47;;
63902;SDS011;50072;50.678;13.938;2022-12-16T07:29:10;108.65;;;32.35;;
63902;SDS011;50072;50.678;13.938;2022-12-16T07:31:54;106.60;;;29.23;;
63902;SDS011;50072;50.678;13.938;2022-12-16T07:34:39;85.05;;;26.02;;
63902;SDS011;50072;50.678;13.938;2022-12-16T07:37:23;78.47;;;27.05;;
63902;SDS011;50072;50.678;13.938;2022-12-16T07:40:07;72.00;;;24.92;;
63902;SDS011;50072;50.678;13.938;2022-12-16T07:42:52;77.28;;;26.88;;
63902;SDS011;50072;50.678;13.938;2022-12-16T07:45:37;49.03;;;19.33;;
63902;SDS011;50072;50.678;13.938;2022-12-16T07:48:22;55.45;;;21.15;;
63902;SDS011;50072;50.678;13.938;2022-12-16T07:51:06;61.28;;;23.23;;
63902;SDS011;50072;50.678;13.938;2022-12-16T07:53:51;47.35;;;18.45;;
63902;SDS011;50072;50.678;13.938;2022-12-16T07:56:35;42.00;;;16.40;;
63902;SDS011;50072;50.678;13.938;2022-12-16T07:59:19;48.72;;;18.40;;
63902;SDS011;50072;50.678;13.938;2022-12-16T08:02:04;48.17;;;17.70;;
63902;SDS011;50072;50.678;13.938;2022-12-16T08:04:50;42.50;;;16.55;;
63902;SDS011;50072;50.678;13.938;2022-12-16T08:07:38;31.73;;;12.30;;
63902;SDS011;50072;50.678;13.938;2022-12-16T08:10:23;35.28;;;12.82;;
63902;SDS011;50072;50.678;13.938;2022-12-16T08:13:07;31.55;;;12.80;;
63902;SDS011;50072;50.678;13.938;2022-12-16T08:15:52;37.90;;;13.68;;
63902;SDS011;50072;50.678;13.938;2022-12-16T08:18:36;104.30;;;34.85;;
63902;SDS011;50072;50.678;13.938;2022-12-16T08:21:21;33.20;;;14.45;;
63902;SDS011;50072;50.678;13.938;2022-12-16T08:24:05;44.75;;;15.23;;
63902;SDS011;50072;50.678;13.938;2022-12-16T08:26:50;84.60;;;24.30;;
63902;SDS011;50072;50.678;13.938;2022-12-16T08:29:35;35.35;;;14.43;;
63902;SDS011;50072;50.678;13.938;2022-12-16T08:32:19;34.88;;;13.07;;
63902;SDS011;50072;50.678;13.938;2022-12-16T08:35:04;44.08;;;16.80;;
63902;SDS011;50072;50.678;13.938;2022-12-16T08:37:48;30.85;;;12.88;;
63902;SDS011;50072;50.678;13.938;2022-12-16T08:40:33;39.40;;;14.30;;
63902;SDS011;50072;50.678;13.938;2022-12-16T08:43:17;39.83;;;15.18;;
63902;SDS011;50072;50.678;13.938;2022-12-16T08:46:01;43.63;;;15.38;;
63902;SDS011;50072;50.678;13.938;2022-12-16T08:48:46;42.45;;;16.45;;
63902;SDS011;50072;50.678;13.938;2022-12-16T08:51:31;52.17;;;17.50;;
63902;SDS011;50072;50.678;13.938;2022-12-16T08:54:15;37.70;;;14.30;;
63902;SDS011;50072;50.678;13.938;2022-12-16T08:57:00;39.85;;;15.88;;
63902;SDS011;50072;50.678;13.938;2022-12-16T08:59:44;37.08;;;14.93;;
63902;SDS011;50072;50.678;13.938;2022-12-16T09:02:28;35.25;;;15.02;;
63902;SDS011;50072;50.678;13.938;2022-12-16T09:05:13;37.33;;;14.90;;
63902;SDS011;50072;50.678;13.938;2022-12-16T09:07:58;37.10;;;15.63;;
63902;SDS011;50072;50.678;13.938;2022-12-16T09:10:43;42.28;;;16.67;;
63902;SDS011;50072;50.678;13.938;2022-12-16T09:13:28;39.83;;;16.33;;
63902;SDS011;50072;50.678;13.938;2022-12-16T09:16:12;46.42;;;17.95;;
63902;SDS011;50072;50.678;13.938;2022-12-16T09:18:57;47.38;;;19.02;;
63902;SDS011;50072;50.678;13.938;2022-12-16T09:21:41;54.40;;;20.05;;
63902;SDS011;50072;50.678;13.938;2022-12-16T09:24:25;53.03;;;20.70;;
63902;SDS011;50072;50.678;13.938;2022-12-16T09:27:09;52.28;;;20.45;;
63902;SDS011;50072;50.678;13.938;2022-12-16T09:29:55;48.78;;;19.23;;
63902;SDS011;50072;50.678;13.938;2022-12-16T09:32:43;45.97;;;19.27;;
63902;SDS011;50072;50.678;13.938;2022-12-16T09:35:30;46.75;;;18.35;;
63902;SDS011;50072;50.678;13.938;2022-12-16T09:38:14;39.17;;;15.05;;
63902;SDS011;50072;50.678;13.938;2022-12-16T09:47:37;33.75;;;13.05;;
63902;SDS011;50072;50.678;13.938;2022-12-16T09:50:31;35.25;;;14.85;;
63902;SDS011;50072;50.678;13.938;2022-12-16T09:53:17;38.10;;;14.13;;
63902;SDS011;50072;50.678;13.938;2022-12-16T09:56:05;35.78;;;13.38;;
63902;SDS011;50072;50.678;13.938;2022-12-16T09:58:58;36.78;;;13.60;;
63902;SDS011;50072;50.678;13.938;2022-12-16T10:01:45;33.45;;;12.75;;
63902;SDS011;50072;50.678;13.938;2022-12-16T10:04:30;31.70;;;12.15;;
63902;SDS011;50072;50.678;13.938;2022-12-16T10:07:16;35.08;;;13.60;;
63902;SDS011;50072;50.678;13.938;2022-12-16T10:19:03;38.28;;;15.02;;
63902;SDS011;50072;50.678;13.938;2022-12-16T10:25:17;31.55;;;13.15;;
63902;SDS011;50072;50.678;13.938;2022-12-16T10:30:57;26.30;;;10.75;;
63902;SDS011;50072;50.678;13.938;2022-12-16T10:33:44;24.05;;;10.60;;
63902;SDS011;50072;50.678;13.938;2022-12-16T10:36:31;27.50;;;11.52;;
63902;SDS011;50072;50.678;13.938;2022-12-16T10:42:43;30.02;;;11.23;;
63902;SDS011;50072;50.678;13.938;2022-12-16T10:45:40;32.17;;;12.95;;
63902;SDS011;50072;50.678;13.938;2022-12-16T10:48:29;62.35;;;39.10;;
63902;SDS011;50072;50.678;13.938;2022-12-16T10:51:21;33.63;;;14.35;;
63902;SDS011;50072;50.678;13.938;2022-12-16T10:57:07;38.83;;;14.70;;
63902;SDS011;50072;50.678;13.938;2022-12-16T11:00:19;36.08;;;15.18;;
63902;SDS011;50072;50.678;13.938;2022-12-16T11:03:24;35.65;;;14.02;;
63902;SDS011;50072;50.678;13.938;2022-12-16T11:06:55;35.47;;;14.85;;
63902;SDS011;50072;50.678;13.938;2022-12-16T11:09:29;36.03;;;14.75;;
63902;SDS011;50072;50.678;13.938;2022-12-16T11:15:16;37.63;;;15.82;;
63902;SDS011;50072;50.678;13.938;2022-12-16T11:21:10;37.35;;;14.70;;
63902;SDS011;50072;50.678;13.938;2022-12-16T11:24:10;36.03;;;13.55;;
63902;SDS011;50072;50.678;13.938;2022-12-16T11:26:56;36.30;;;14.40;;
63902;SDS011;50072;50.678;13.938;2022-12-16T11:29:55;39.53;;;15.40;;
63902;SDS011;50072;50.678;13.938;2022-12-16T11:32:47;28.83;;;13.02;;
63902;SDS011;50072;50.678;13.938;2022-12-16T11:35:39;35.72;;;14.10;;
63902;SDS011;50072;50.678;13.938;2022-12-16T11:38:35;35.95;;;14.85;;
63902;SDS011;50072;50.678;13.938;2022-12-16T11:41:32;44.35;;;17.10;;
63902;SDS011;50072;50.678;13.938;2022-12-16T11:44:21;42.25;;;16.73;;
63902;SDS011;50072;50.678;13.938;2022-12-16T11:47:28;50.72;;;19.95;;
63902;SDS011;50072;50.678;13.938;2022-12-16T11:50:16;45.08;;;18.15;;
63902;SDS011;50072;50.678;13.938;2022-12-16T11:53:10;47.78;;;19.02;;
63902;SDS011;50072;50.678;13.938;2022-12-16T11:56:07;45.42;;;18.60;;
63902;SDS011;50072;50.678;13.938;2022-12-16T11:58:56;44.72;;;17.80;;
63902;SDS011;50072;50.678;13.938;2022-12-16T12:01:57;50.25;;;19.45;;
63902;SDS011;50072;50.678;13.938;2022-12-16T12:04:46;44.55;;;17.80;;
63902;SDS011;50072;50.678;13.938;2022-12-16T12:07:34;45.42;;;17.95;;
63902;SDS011;50072;50.678;13.938;2022-12-16T12:11:14;48.10;;;18.58;;
63902;SDS011;50072;50.678;13.938;2022-12-16T12:13:54;45.72;;;18.90;;
63902;SDS011;50072;50.678;13.938;2022-12-16T12:17:07;42.53;;;17.98;;
63902;SDS011;50072;50.678;13.938;2022-12-16T12:22:48;45.45;;;16.98;;
63902;SDS011;50072;50.678;13.938;2022-12-16T12:25:44;43.22;;;17.58;;
63902;SDS011;50072;50.678;13.938;2022-12-16T12:31:46;44.00;;;18.92;;
63902;SDS011;50072;50.678;13.938;2022-12-16T12:37:42;54.47;;;20.63;;
63902;SDS011;50072;50.678;13.938;2022-12-16T12:40:51;50.97;;;19.40;;
63902;SDS011;50072;50.678;13.938;2022-12-16T12:47:28;49.35;;;20.45;;
63902;SDS011;50072;50.678;13.938;2022-12-16T12:50:17;47.63;;;18.15;;
63902;SDS011;50072;50.678;13.938;2022-12-16T12:56:20;46.90;;;17.83;;
63902;SDS011;50072;50.678;13.938;2022-12-16T12:59:20;48.08;;;17.80;;
63902;SDS011;50072;50.678;13.938;2022-12-16T13:02:13;45.70;;;17.65;;
63902;SDS011;50072;50.678;13.938;2022-12-16T13:05:02;40.65;;;16.25;;
63902;SDS011;50072;50.678;13.938;2022-12-16T13:07:47;45.78;;;18.02;;
63902;SDS011;50072;50.678;13.938;2022-12-16T13:10:33;45.45;;;18.40;;
63902;SDS011;50072;50.678;13.938;2022-12-16T13:13:24;45.33;;;18.27;;
63902;SDS011;50072;50.678;13.938;2022-12-16T13:22:26;52.80;;;19.90;;
63902;SDS011;50072;50.678;13.938;2022-12-16T13:25:31;46.80;;;17.95;;
63902;SDS011;50072;50.678;13.938;2022-12-16T13:28:34;44.00;;;16.15;;
63902;SDS011;50072;50.678;13.938;2022-12-16T13:31:21;46.58;;;17.08;;
63902;SDS011;50072;50.678;13.938;2022-12-16T13:34:27;47.15;;;19.20;;
63902;SDS011;50072;50.678;13.938;2022-12-16T13:37:33;46.78;;;18.73;;
63902;SDS011;50072;50.678;13.938;2022-12-16T13:40:20;41.70;;;16.67;;
63902;SDS011;50072;50.678;13.938;2022-12-16T13:43:40;42.00;;;16.50;;
63902;SDS011;50072;50.678;13.938;2022-12-16T13:46:38;43.05;;;16.70;;
63902;SDS011;50072;50.678;13.938;2022-12-16T13:52:20;40.92;;;15.65;;
63902;SDS011;50072;50.678;13.938;2022-12-16T13:55:17;35.40;;;14.15;;
63902;SDS011;50072;50.678;13.938;2022-12-16T13:58:05;29.83;;;12.38;;
63902;SDS011;50072;50.678;13.938;2022-12-16T14:01:11;41.55;;;16.35;;
63902;SDS011;50072;50.678;13.938;2022-12-16T14:04:00;33.50;;;12.95;;
63902;SDS011;50072;50.678;13.938;2022-12-16T14:06:45;34.20;;;14.23;;
63902;SDS011;50072;50.678;13.938;2022-12-16T14:09:36;37.83;;;13.85;;
63902;SDS011;50072;50.678;13.938;2022-12-16T14:25:25;49.55;;;16.90;;
63902;SDS011;50072;50.678;13.938;2022-12-16T14:31:19;37.78;;;16.40;;
63902;SDS011;50072;50.678;13.938;2022-12-16T14:34:16;44.58;;;16.52;;
63902;SDS011;50072;50.678;13.938;2022-12-16T14:37:11;40.90;;;15.95;;
63902;SDS011;50072;50.678;13.938;2022-12-16T14:40:04;45.47;;;17.60;;
63902;SDS011;50072;50.678;13.938;2022-12-16T14:43:01;45.10;;;18.42;;
63902;SDS011;50072;50.678;13.938;2022-12-16T14:45:49;50.42;;;20.65;;
63902;SDS011;50072;50.678;13.938;2022-12-16T14:48:36;44.40;;;18.80;;
63902;SDS011;50072;50.678;13.938;2022-12-16T14:51:24;48.28;;;18.20;;
63902;SDS011;50072;50.678;13.938;2022-12-16T14:54:18;46.97;;;18.52;;
63902;SDS011;50072;50.678;13.938;2022-12-16T14:57:14;48.93;;;19.13;;
63902;SDS011;50072;50.678;13.938;2022-12-16T15:00:08;49.95;;;19.48;;
63902;SDS011;50072;50.678;13.938;2022-12-16T15:02:56;49.17;;;19.95;;
63902;SDS011;50072;50.678;13.938;2022-12-16T15:05:49;47.65;;;19.20;;
63902;SDS011;50072;50.678;13.938;2022-12-16T15:08:35;59.50;;;23.42;;
63902;SDS011;50072;50.678;13.938;2022-12-16T15:11:26;69.32;;;27.50;;
63902;SDS011;50072;50.678;13.938;2022-12-16T15:14:13;55.65;;;20.95;;
63902;SDS011;50072;50.678;13.938;2022-12-16T15:17:01;54.08;;;19.92;;
63902;SDS011;50072;50.678;13.938;2022-12-16T15:19:48;53.28;;;19.80;;
63902;SDS011;50072;50.678;13.938;2022-12-16T15:22:36;51.97;;;21.20;;
63902;SDS011;50072;50.678;13.938;2022-12-16T15:25:26;50.28;;;19.05;;
63902;SDS011;50072;50.678;13.938;2022-12-16T15:28:24;45.33;;;19.70;;
63902;SDS011;50072;50.678;13.938;2022-12-16T15:31:23;46.95;;;19.05;;
63902;SDS011;50072;50.678;13.938;2022-12-16T15:37:21;55.28;;;21.30;;
63902;SDS011;50072;50.678;13.938;2022-12-16T15:40:24;48.83;;;19.80;;
63902;SDS011;50072;50.678;13.938;2022-12-16T15:43:27;59.63;;;21.67;;
63902;SDS011;50072;50.678;13.938;2022-12-16T15:46:26;58.05;;;24.38;;
63902;SDS011;50072;50.678;13.938;2022-12-16T15:49:20;61.47;;;22.30;;
63902;SDS011;50072;50.678;13.938;2022-12-16T15:55:37;70.60;;;26.23;;
63902;SDS011;50072;50.678;13.938;2022-12-16T16:01:20;61.47;;;22.63;;
63902;SDS011;50072;50.678;13.938;2022-12-16T16:04:23;49.83;;;21.23;;
63902;SDS011;50072;50.678;13.938;2022-12-16T16:07:15;46.45;;;18.63;;
63902;SDS011;50072;50.678;13.938;2022-12-16T16:10:17;51.72;;;19.92;;
63902;SDS011;50072;50.678;13.938;2022-12-16T16:13:03;49.25;;;20.58;;
63902;SDS011;50072;50.678;13.938;2022-12-16T16:15:48;51.75;;;22.10;;
63902;SDS011;50072;50.678;13.938;2022-12-16T16:18:33;47.83;;;20.25;;
63902;SDS011;50072;50.678;13.938;2022-12-16T16:21:18;60.72;;;23.05;;
63902;SDS011;50072;50.678;13.938;2022-12-16T16:24:03;48.78;;;21.15;;
63902;SDS011;50072;50.678;13.938;2022-12-16T16:26:48;57.85;;;22.35;;
63902;SDS011;50072;50.678;13.938;2022-12-16T16:29:33;44.72;;;18.63;;
63902;SDS011;50072;50.678;13.938;2022-12-16T16:32:18;54.05;;;19.90;;
63902;SDS011;50072;50.678;13.938;2022-12-16T16:35:02;61.38;;;25.13;;
63902;SDS011;50072;50.678;13.938;2022-12-16T16:37:49;56.78;;;21.35;;
63902;SDS011;50072;50.678;13.938;2022-12-16T16:40:37;70.78;;;27.58;;
63902;SDS011;50072;50.678;13.938;2022-12-16T16:52:12;46.85;;;19.10;;
63902;SDS011;50072;50.678;13.938;2022-12-16T16:54:58;93.63;;;34.70;;
63902;SDS011;50072;50.678;13.938;2022-12-16T16:57:42;83.88;;;28.83;;
63902;SDS011;50072;50.678;13.938;2022-12-16T17:00:27;68.03;;;27.90;;
63902;SDS011;50072;50.678;13.938;2022-12-16T17:03:13;50.03;;;21.83;;
63902;SDS011;50072;50.678;13.938;2022-12-16T17:05:57;57.72;;;23.23;;
63902;SDS011;50072;50.678;13.938;2022-12-16T17:08:41;57.22;;;23.67;;
63902;SDS011;50072;50.678;13.938;2022-12-16T17:11:26;61.17;;;21.25;;
63902;SDS011;50072;50.678;13.938;2022-12-16T17:14:17;62.30;;;24.58;;
63902;SDS011;50072;50.678;13.938;2022-12-16T17:17:04;60.28;;;24.42;;
63902;SDS011;50072;50.678;13.938;2022-12-16T17:19:49;70.57;;;26.13;;
63902;SDS011;50072;50.678;13.938;2022-12-16T17:22:34;59.92;;;25.20;;
63902;SDS011;50072;50.678;13.938;2022-12-16T17:25:18;54.60;;;21.90;;
63902;SDS011;50072;50.678;13.938;2022-12-16T17:28:04;66.30;;;26.58;;
63902;SDS011;50072;50.678;13.938;2022-12-16T17:30:48;62.85;;;25.65;;
63902;SDS011;50072;50.678;13.938;2022-12-16T17:33:33;73.43;;;31.52;;
63902;SDS011;50072;50.678;13.938;2022-12-16T17:36:17;62.88;;;24.30;;
63902;SDS011;50072;50.678;13.938;2022-12-16T17:39:02;58.45;;;23.83;;
63902;SDS011;50072;50.678;13.938;2022-12-16T17:41:47;63.13;;;24.48;;